createdAt,value
2022-10-11T00:00:45.925Z,1018.45
2022-10-11T00:01:46.061Z,1018.44
2022-10-11T00:03:31.139Z,1018.49
2022-10-11T00:04:28.544Z,1018.47
2022-10-11T00:05:28.568Z,1018.53
2022-10-11T00:06:28.593Z,1018.54
2022-10-11T00:07:28.615Z,1018.51
2022-10-11T00:08:28.641Z,1018.62
2022-10-11T00:09:28.665Z,1018.60
2022-10-11T00:10:28.689Z,1018.60
2022-10-11T00:11:28.712Z,1018.59
2022-10-11T00:12:28.737Z,1018.60
2022-10-11T00:14:11.373Z,1018.62
2022-10-11T00:15:11.399Z,1018.60
2022-10-11T00:16:11.423Z,1018.60
2022-10-11T00:17:11.474Z,1018.64
2022-10-11T00:18:11.474Z,1018.62
2022-10-11T00:19:11.499Z,1018.62
2022-10-11T00:20:11.519Z,1018.64
2022-10-11T00:21:11.545Z,1018.62
2022-10-11T00:22:11.567Z,1018.67
2022-10-11T00:23:11.594Z,1018.62
2022-10-11T00:24:11.617Z,1018.62
2022-10-11T00:25:11.644Z,1018.63
2022-10-11T00:26:11.666Z,1018.62
2022-10-11T00:27:11.844Z,1018.70
2022-10-11T00:28:11.740Z,1018.64
2022-10-11T00:29:11.742Z,1018.65
2022-10-11T00:30:11.765Z,1018.75
2022-10-11T00:31:11.791Z,1018.70
2022-10-11T00:32:11.814Z,1018.75
2022-10-11T00:33:11.861Z,1018.77
2022-10-11T00:34:11.863Z,1018.74
2022-10-11T00:35:11.888Z,1018.75
2022-10-11T00:36:11.912Z,1018.76
2022-10-11T00:37:11.938Z,1018.73
2022-10-11T00:38:11.961Z,1018.72
2022-10-11T00:39:14.295Z,1018.72
2022-10-11T00:40:12.011Z,1018.70
2022-10-11T00:41:12.038Z,1018.71
2022-10-11T00:42:12.059Z,1018.73
2022-10-11T00:43:12.086Z,1018.72
2022-10-11T00:44:12.109Z,1018.70
2022-10-11T00:45:12.133Z,1018.73
2022-10-11T00:46:12.158Z,1018.76
2022-10-11T00:47:12.183Z,1018.72
2022-10-11T00:48:12.207Z,1018.69
2022-10-11T00:49:12.253Z,1018.72
2022-10-11T00:50:12.256Z,1018.76
2022-10-11T00:51:12.280Z,1018.79
2022-10-11T00:52:12.304Z,1018.75
2022-10-11T00:53:12.330Z,1018.76
2022-10-11T00:54:12.357Z,1018.81
2022-10-11T00:55:12.380Z,1018.81
2022-10-11T00:56:12.401Z,1018.79
2022-10-11T00:57:12.428Z,1018.76
2022-10-11T00:58:12.453Z,1018.78
2022-10-11T00:59:12.477Z,1018.77
2022-10-11T01:00:12.500Z,1018.78
2022-10-11T01:01:12.632Z,1018.81
2022-10-11T01:02:12.548Z,1018.80
2022-10-11T01:03:12.574Z,1018.77
2022-10-11T01:04:12.596Z,1018.74
2022-10-11T01:05:28.725Z,1018.77
2022-10-11T01:06:12.646Z,1018.72
2022-10-11T01:07:12.670Z,1018.75
2022-10-11T01:08:12.697Z,1018.77
2022-10-11T01:09:12.720Z,1018.75
2022-10-11T01:10:12.742Z,1018.74
2022-10-11T01:11:12.770Z,1018.75
2022-10-11T01:12:12.791Z,1018.77
2022-10-11T01:13:12.816Z,1018.74
2022-10-11T01:14:12.841Z,1018.75
2022-10-11T01:15:12.866Z,1018.73
2022-10-11T01:16:12.890Z,1018.73
2022-10-11T01:17:12.916Z,1018.77
2022-10-11T01:18:12.937Z,1018.81
2022-10-11T01:19:12.963Z,1018.81
2022-10-11T01:20:12.987Z,1018.80
2022-10-11T01:21:13.031Z,1018.80
2022-10-11T01:22:13.035Z,1018.79
2022-10-11T01:23:13.063Z,1018.80
2022-10-11T01:24:13.083Z,1018.79
2022-10-11T01:25:13.111Z,1018.80
2022-10-11T01:26:13.131Z,1018.85
2022-10-11T01:27:13.157Z,1018.82
2022-10-11T01:28:13.251Z,1018.81
2022-10-11T01:29:13.206Z,1018.84
2022-10-11T01:30:13.228Z,1018.85
2022-10-11T01:31:13.254Z,1018.80
2022-10-11T01:32:13.276Z,1018.86
2022-10-11T01:33:13.302Z,1018.88
2022-10-11T01:34:13.330Z,1018.84
2022-10-11T01:35:13.353Z,1018.86
2022-10-11T01:36:13.374Z,1018.89
2022-10-11T01:37:13.424Z,1018.88
2022-10-11T01:38:13.424Z,1018.92
2022-10-11T01:39:13.447Z,1018.87
2022-10-11T01:40:13.470Z,1018.86
2022-10-11T01:41:13.495Z,1018.90
2022-10-11T01:42:13.518Z,1018.91
2022-10-11T01:43:13.546Z,1019.01
2022-10-11T01:44:13.569Z,1018.88
2022-10-11T01:45:13.592Z,1018.95
2022-10-11T01:46:13.615Z,1018.95
2022-10-11T01:47:13.645Z,1018.98
2022-10-11T01:48:13.664Z,1019.02
2022-10-11T01:49:13.689Z,1019.03
2022-10-11T01:50:13.712Z,1019.02
2022-10-11T01:51:13.738Z,1019.00
2022-10-11T01:52:13.762Z,1019.00
2022-10-11T01:53:13.807Z,1019.00
2022-10-11T01:54:13.809Z,1019.05
2022-10-11T01:55:13.834Z,1019.04
2022-10-11T01:56:13.859Z,1019.05
2022-10-11T01:57:13.883Z,1019.03
2022-10-11T01:58:13.905Z,1019.07
2022-10-11T01:59:13.930Z,1019.08
2022-10-11T02:00:13.953Z,1019.03
2022-10-11T02:01:14.044Z,1019.06
2022-10-11T02:02:14.009Z,1019.07
2022-10-11T02:03:14.028Z,1019.00
2022-10-11T02:04:14.049Z,1019.04
2022-10-11T02:05:14.075Z,1019.05
2022-10-11T02:06:14.096Z,1019.07
2022-10-11T02:07:14.123Z,1019.01
2022-10-11T02:08:14.145Z,1019.08
2022-10-11T02:09:14.188Z,1019.04
2022-10-11T02:10:14.194Z,1019.03
2022-10-11T02:11:14.219Z,1019.07
2022-10-11T02:12:14.243Z,1019.03
2022-10-11T02:13:14.268Z,1019.02
2022-10-11T02:14:14.290Z,1019.06
2022-10-11T02:15:14.317Z,1019.05
2022-10-11T02:16:14.340Z,1019.06
2022-10-11T02:17:14.363Z,1019.07
2022-10-11T02:18:14.383Z,1019.08
2022-10-11T02:19:14.462Z,1019.02
2022-10-11T02:20:14.435Z,1019.03
2022-10-11T02:21:14.458Z,1018.98
2022-10-11T02:22:14.480Z,1018.98
2022-10-11T02:23:14.506Z,1019.00
2022-10-11T02:24:14.528Z,1019.01
2022-10-11T02:25:14.574Z,1019.07
2022-10-11T02:26:14.576Z,1019.03
2022-10-11T02:27:14.602Z,1019.03
2022-10-11T02:28:14.722Z,1019.05
2022-10-11T02:29:14.652Z,1019.06
2022-10-11T02:30:14.673Z,1019.06
2022-10-11T02:31:14.699Z,1019.09
2022-10-11T02:32:14.721Z,1019.04
2022-10-11T02:33:14.748Z,1019.07
2022-10-11T02:34:14.768Z,1019.08
2022-10-11T02:35:14.795Z,1019.05
2022-10-11T02:36:14.816Z,1019.07
2022-10-11T02:37:14.840Z,1019.05
2022-10-11T02:38:14.864Z,1019.09
2022-10-11T02:39:14.890Z,1019.15
2022-10-11T02:40:14.913Z,1019.11
2022-10-11T02:41:14.956Z,1019.22
2022-10-11T02:42:14.960Z,1019.20
2022-10-11T02:43:14.984Z,1019.18
2022-10-11T02:44:15.008Z,1019.18
2022-10-11T02:45:15.033Z,1019.20
2022-10-11T02:46:17.575Z,1019.17
2022-10-11T02:47:15.082Z,1019.20
2022-10-11T02:48:15.103Z,1019.23
2022-10-11T02:49:15.126Z,1019.21
2022-10-11T02:50:15.150Z,1019.25
2022-10-11T02:51:15.177Z,1019.25
2022-10-11T02:52:15.197Z,1019.28
2022-10-11T02:53:15.222Z,1019.28
2022-10-11T02:54:15.244Z,1019.27
2022-10-11T02:55:15.272Z,1019.32
2022-10-11T02:56:15.294Z,1019.31
2022-10-11T02:57:15.336Z,1019.27
2022-10-11T02:58:15.340Z,1019.26
2022-10-11T02:59:15.366Z,1019.21
2022-10-11T03:00:15.388Z,1019.24
2022-10-11T03:01:15.454Z,1019.26
2022-10-11T03:02:15.435Z,1019.24
2022-10-11T03:03:15.462Z,1019.27
2022-10-11T03:04:15.485Z,1019.31
2022-10-11T03:05:15.508Z,1019.29
2022-10-11T03:06:15.534Z,1019.31
2022-10-11T03:07:15.555Z,1019.33
2022-10-11T03:08:15.581Z,1019.33
2022-10-11T03:09:15.603Z,1019.35
2022-10-11T03:10:15.624Z,1019.36
2022-10-11T03:11:15.650Z,1019.39
2022-10-11T03:12:15.671Z,1019.37
2022-10-11T03:13:18.373Z,1019.38
2022-10-11T03:14:15.719Z,1019.36
2022-10-11T03:15:15.750Z,1019.35
2022-10-11T03:16:15.769Z,1019.40
2022-10-11T03:17:34.988Z,1019.36
2022-10-11T03:18:15.816Z,1019.38
2022-10-11T03:19:19.350Z,1019.37
2022-10-11T03:20:15.869Z,1019.36
2022-10-11T03:21:15.887Z,1019.40
2022-10-11T03:22:15.911Z,1019.41
2022-10-11T03:23:15.935Z,1019.36
2022-10-11T03:24:15.959Z,1019.42
2022-10-11T03:25:15.982Z,1019.35
2022-10-11T03:26:16.005Z,1019.41
2022-10-11T03:27:16.031Z,1019.45
2022-10-11T03:28:16.123Z,1019.40
2022-10-11T03:29:16.104Z,1019.41
2022-10-11T03:30:18.182Z,1019.46
2022-10-11T03:31:16.125Z,1019.44
2022-10-11T03:32:16.147Z,1019.47
2022-10-11T03:33:16.172Z,1019.51
2022-10-11T03:34:16.192Z,1019.46
2022-10-11T03:35:16.219Z,1019.55
2022-10-11T03:36:16.241Z,1019.49
2022-10-11T03:37:16.266Z,1019.59
2022-10-11T03:38:16.289Z,1019.59
2022-10-11T03:39:16.314Z,1019.58
2022-10-11T03:40:16.339Z,1019.59
2022-10-11T03:41:16.361Z,1019.61
2022-10-11T03:42:16.383Z,1019.57
2022-10-11T03:43:16.426Z,1019.59
2022-10-11T03:44:16.430Z,1019.64
2022-10-11T03:45:16.472Z,1019.58
2022-10-11T03:46:16.476Z,1019.66
2022-10-11T03:47:16.506Z,1019.63
2022-10-11T03:48:16.527Z,1019.63
2022-10-11T03:49:16.551Z,1019.65
2022-10-11T03:50:16.571Z,1019.61
2022-10-11T03:51:16.597Z,1019.66
2022-10-11T03:52:16.620Z,1019.64
2022-10-11T03:53:16.646Z,1019.67
2022-10-11T03:54:16.666Z,1019.65
2022-10-11T03:55:16.691Z,1019.65
2022-10-11T03:56:16.784Z,1019.65
2022-10-11T03:57:16.738Z,1019.69
2022-10-11T03:58:16.762Z,1019.69
2022-10-11T03:59:16.785Z,1019.70
2022-10-11T04:00:16.808Z,1019.71
2022-10-11T04:01:16.902Z,1019.69
2022-10-11T04:02:16.857Z,1019.74
2022-10-11T04:03:16.880Z,1019.67
2022-10-11T04:04:16.905Z,1019.67
2022-10-11T04:05:16.927Z,1019.72
2022-10-11T04:06:16.949Z,1019.73
2022-10-11T04:07:16.979Z,1019.73
2022-10-11T04:08:16.996Z,1019.75
2022-10-11T04:09:17.020Z,1019.73
2022-10-11T04:10:17.043Z,1019.71
2022-10-11T04:11:17.068Z,1019.75
2022-10-11T04:12:17.089Z,1019.72
2022-10-11T04:13:17.114Z,1019.77
2022-10-11T04:14:17.138Z,1019.74
2022-10-11T04:15:17.170Z,1019.77
2022-10-11T04:16:17.185Z,1019.76
2022-10-11T04:17:17.226Z,1019.75
2022-10-11T04:18:17.231Z,1019.78
2022-10-11T04:19:17.256Z,1019.78
2022-10-11T04:20:17.278Z,1019.80
2022-10-11T04:21:17.302Z,1019.83
2022-10-11T04:22:17.325Z,1019.84
2022-10-11T04:23:17.352Z,1019.85
2022-10-11T04:24:17.373Z,1019.84
2022-10-11T04:25:17.397Z,1019.85
2022-10-11T04:26:17.419Z,1019.88
2022-10-11T04:27:17.444Z,1019.87
2022-10-11T04:28:17.487Z,1019.84
2022-10-11T04:29:17.490Z,1019.88
2022-10-11T04:30:17.515Z,1019.84
2022-10-11T04:31:17.537Z,1019.88
2022-10-11T04:32:17.563Z,1019.88
2022-10-11T04:33:17.609Z,1019.92
2022-10-11T04:34:17.609Z,1019.93
2022-10-11T04:35:17.632Z,1019.91
2022-10-11T04:36:17.658Z,1019.96
2022-10-11T04:37:17.679Z,1019.94
2022-10-11T04:38:17.705Z,1019.95
2022-10-11T04:39:17.726Z,1019.99
2022-10-11T04:40:17.752Z,1019.97
2022-10-11T04:41:17.772Z,1019.95
2022-10-11T04:42:17.801Z,1019.98
2022-10-11T04:43:17.821Z,1019.97
2022-10-11T04:44:17.847Z,1019.99
2022-10-11T04:45:17.868Z,1019.97
2022-10-11T04:46:17.895Z,1019.99
2022-10-11T04:47:17.916Z,1020.00
2022-10-11T04:48:17.942Z,1020.02
2022-10-11T04:49:18.000Z,1020.06
2022-10-11T04:50:17.991Z,1020.04
2022-10-11T04:51:18.012Z,1020.07
2022-10-11T04:52:21.072Z,1020.06
2022-10-11T04:53:18.059Z,1020.07
2022-10-11T04:54:18.085Z,1020.00
2022-10-11T04:55:18.105Z,1020.03
2022-10-11T04:56:18.135Z,1020.04
2022-10-11T04:57:18.154Z,1020.02
2022-10-11T04:58:18.181Z,1020.02
2022-10-11T04:59:18.203Z,1020.05
2022-10-11T05:00:18.229Z,1020.04
2022-10-11T05:01:18.253Z,1020.08
2022-10-11T05:02:18.434Z,1020.05
2022-10-11T05:03:18.299Z,1020.11
2022-10-11T05:04:18.325Z,1020.10
2022-10-11T05:05:18.367Z,1020.13
2022-10-11T05:06:18.372Z,1020.11
2022-10-11T05:07:18.395Z,1020.16
2022-10-11T05:08:18.422Z,1020.15
2022-10-11T05:09:18.442Z,1020.11
2022-10-11T05:10:18.469Z,1020.16
2022-10-11T05:11:18.491Z,1020.13
2022-10-11T05:12:18.520Z,1020.13
2022-10-11T05:13:18.541Z,1020.14
2022-10-11T05:14:18.566Z,1020.17
2022-10-11T05:15:18.589Z,1020.20
2022-10-11T05:16:18.660Z,1020.22
2022-10-11T05:17:18.638Z,1020.25
2022-10-11T05:18:18.664Z,1020.26
2022-10-11T05:19:18.686Z,1020.26
2022-10-11T05:20:18.716Z,1020.29
2022-10-11T05:21:18.753Z,1020.30
2022-10-11T05:22:18.759Z,1020.32
2022-10-11T05:23:18.782Z,1020.36
2022-10-11T05:24:18.809Z,1020.30
2022-10-11T05:25:18.834Z,1020.35
2022-10-11T05:26:18.858Z,1020.35
2022-10-11T05:27:18.880Z,1020.29
2022-10-11T05:28:18.957Z,1020.33
2022-10-11T05:29:18.927Z,1020.31
2022-10-11T05:30:18.954Z,1020.32
2022-10-11T05:31:18.977Z,1020.33
2022-10-11T05:32:19.003Z,1020.38
2022-10-11T05:33:19.025Z,1020.36
2022-10-11T05:34:19.051Z,1020.33
2022-10-11T05:35:19.080Z,1020.35
2022-10-11T05:36:19.108Z,1020.30
2022-10-11T05:37:19.140Z,1020.36
2022-10-11T05:38:19.148Z,1020.37
2022-10-11T05:39:19.171Z,1020.41
2022-10-11T05:40:19.198Z,1020.37
2022-10-11T05:41:19.219Z,1020.38
2022-10-11T05:42:19.247Z,1020.43
2022-10-11T05:43:19.268Z,1020.40
2022-10-11T05:44:19.297Z,1020.43
2022-10-11T05:45:19.317Z,1020.42
2022-10-11T05:46:19.343Z,1020.46
2022-10-11T05:47:19.367Z,1020.47
2022-10-11T05:48:19.394Z,1020.47
2022-10-11T05:49:19.416Z,1020.52
2022-10-11T05:50:24.026Z,1020.53
2022-10-11T05:51:19.465Z,1020.56
2022-10-11T05:52:19.490Z,1020.53
2022-10-11T05:53:19.531Z,1020.52
2022-10-11T05:54:19.539Z,1020.49
2022-10-11T05:55:19.562Z,1020.54
2022-10-11T05:56:19.589Z,1020.56
2022-10-11T05:57:19.611Z,1020.57
2022-10-11T05:58:19.753Z,1020.57
2022-10-11T05:59:19.661Z,1020.54
2022-10-11T06:00:19.688Z,1020.58
2022-10-11T06:01:19.767Z,1020.60
2022-10-11T06:02:19.736Z,1020.66
2022-10-11T06:03:19.797Z,1020.65
2022-10-11T06:04:19.784Z,1020.66
2022-10-11T06:05:19.806Z,1020.67
2022-10-11T06:06:19.833Z,1020.69
2022-10-11T06:07:19.857Z,1020.73
2022-10-11T06:08:19.883Z,1020.68
2022-10-11T06:09:19.922Z,1020.71
2022-10-11T06:10:19.932Z,1020.71
2022-10-11T06:11:19.954Z,1020.72
2022-10-11T06:12:19.981Z,1020.75
2022-10-11T06:13:20.003Z,1020.77
2022-10-11T06:14:20.031Z,1020.79
2022-10-11T06:15:20.053Z,1020.77
2022-10-11T06:16:20.079Z,1020.83
2022-10-11T06:17:20.101Z,1020.83
2022-10-11T06:18:20.127Z,1020.76
2022-10-11T06:19:20.150Z,1020.81
2022-10-11T06:20:20.178Z,1020.81
2022-10-11T06:21:20.200Z,1020.81
2022-10-11T06:22:20.234Z,1020.73
2022-10-11T06:23:20.250Z,1020.81
2022-10-11T06:24:20.275Z,1020.81
2022-10-11T06:25:20.315Z,1020.83
2022-10-11T06:26:20.328Z,1020.84
2022-10-11T06:27:20.351Z,1020.89
2022-10-11T06:28:20.435Z,1020.89
2022-10-11T06:29:20.397Z,1020.86
2022-10-11T06:30:20.423Z,1020.90
2022-10-11T06:31:20.446Z,1020.88
2022-10-11T06:32:20.478Z,1020.96
2022-10-11T06:33:20.494Z,1020.93
2022-10-11T06:34:20.524Z,1020.94
2022-10-11T06:35:20.545Z,1020.99
2022-10-11T06:36:20.572Z,1020.99
2022-10-11T06:37:20.594Z,1021.01
2022-10-11T06:38:20.620Z,1021.02
2022-10-11T06:39:20.652Z,1021.04
2022-10-11T06:40:20.671Z,1021.00
2022-10-11T06:41:20.714Z,1021.03
2022-10-11T06:42:20.719Z,1021.04
2022-10-11T06:43:20.746Z,1021.06
2022-10-11T06:44:20.774Z,1021.10
2022-10-11T06:45:20.792Z,1021.10
2022-10-11T06:46:20.820Z,1021.10
2022-10-11T06:47:20.842Z,1021.12
2022-10-11T06:48:20.869Z,1021.15
2022-10-11T06:49:23.471Z,1021.15
2022-10-11T06:50:40.635Z,1021.16
2022-10-11T06:51:20.946Z,1021.15
2022-10-11T06:52:20.972Z,1021.16
2022-10-11T06:53:20.991Z,1021.17
2022-10-11T06:54:21.018Z,1021.16
2022-10-11T06:55:21.041Z,1021.18
2022-10-11T06:56:21.068Z,1021.18
2022-10-11T06:57:21.109Z,1021.21
2022-10-11T06:58:21.117Z,1021.20
2022-10-11T06:59:21.146Z,1021.19
2022-10-11T07:00:21.169Z,1021.26
2022-10-11T07:01:21.294Z,1021.22
2022-10-11T07:02:21.220Z,1021.24
2022-10-11T07:03:21.240Z,1021.22
2022-10-11T07:04:21.269Z,1021.28
2022-10-11T07:05:21.291Z,1021.30
2022-10-11T07:06:21.317Z,1021.31
2022-10-11T07:07:21.340Z,1021.32
2022-10-11T07:08:21.367Z,1021.38
2022-10-11T07:09:21.395Z,1021.38
2022-10-11T07:10:21.417Z,1021.40
2022-10-11T07:11:21.440Z,1021.39
2022-10-11T07:12:21.466Z,1021.47
2022-10-11T07:13:21.508Z,1021.44
2022-10-11T07:14:21.517Z,1021.43
2022-10-11T07:15:21.539Z,1021.51
2022-10-11T07:16:21.568Z,1021.44
2022-10-11T07:17:21.599Z,1021.50
2022-10-11T07:18:21.625Z,1021.50
2022-10-11T07:19:21.646Z,1021.50
2022-10-11T07:20:21.668Z,1021.51
2022-10-11T07:21:21.690Z,1021.50
2022-10-11T07:22:21.723Z,1021.51
2022-10-11T07:23:21.740Z,1021.52
2022-10-11T07:24:21.766Z,1021.55
2022-10-11T07:25:21.795Z,1021.56
2022-10-11T07:26:21.817Z,1021.53
2022-10-11T07:27:21.839Z,1021.53
2022-10-11T07:28:21.931Z,1021.61
2022-10-11T07:29:21.911Z,1021.64
2022-10-11T07:30:21.970Z,1021.58
2022-10-11T07:31:21.943Z,1021.62
2022-10-11T07:32:21.970Z,1021.61
2022-10-11T07:33:21.991Z,1021.64
2022-10-11T07:34:22.019Z,1021.61
2022-10-11T07:35:22.040Z,1021.63
2022-10-11T07:36:22.069Z,1021.66
2022-10-11T07:37:22.094Z,1021.65
2022-10-11T07:38:22.122Z,1021.67
2022-10-11T07:39:22.145Z,1021.62
2022-10-11T07:40:22.168Z,1021.67
2022-10-11T07:41:22.194Z,1021.65
2022-10-11T07:42:22.220Z,1021.66
2022-10-11T07:43:22.243Z,1021.66
2022-10-11T07:44:22.276Z,1021.71
2022-10-11T07:45:22.308Z,1021.69
2022-10-11T07:46:22.320Z,1021.69
2022-10-11T07:47:22.344Z,1021.68
2022-10-11T07:48:22.371Z,1021.68
2022-10-11T07:49:22.392Z,1021.72
2022-10-11T07:50:22.422Z,1021.70
2022-10-11T07:51:22.457Z,1021.69
2022-10-11T07:52:22.493Z,1021.67
2022-10-11T07:53:22.507Z,1021.67
2022-10-11T07:54:22.526Z,1021.69
2022-10-11T07:55:22.548Z,1021.67
2022-10-11T07:56:22.574Z,1021.70
2022-10-11T07:57:22.613Z,1021.72
2022-10-11T07:58:22.623Z,1021.71
2022-10-11T07:59:22.650Z,1021.71
2022-10-11T08:00:22.675Z,1021.70
2022-10-11T08:01:22.761Z,1021.70
2022-10-11T08:02:22.727Z,1021.70
2022-10-11T08:03:22.748Z,1021.74
2022-10-11T08:04:22.782Z,1021.71
2022-10-11T08:05:22.801Z,1021.78
2022-10-11T08:06:22.826Z,1021.75
2022-10-11T08:07:22.860Z,1021.79
2022-10-11T08:08:22.877Z,1021.79
2022-10-11T08:09:22.908Z,1021.80
2022-10-11T08:10:23.102Z,1021.81
2022-10-11T08:11:22.960Z,1021.84
2022-10-11T08:12:22.978Z,1021.83
2022-10-11T08:13:23.002Z,1021.86
2022-10-11T08:14:23.029Z,1021.81
2022-10-11T08:15:23.052Z,1021.84
2022-10-11T08:16:23.082Z,1021.82
2022-10-11T08:17:23.119Z,1021.81
2022-10-11T08:18:23.131Z,1021.89
2022-10-11T08:19:23.161Z,1021.94
2022-10-11T08:20:23.182Z,1021.92
2022-10-11T08:21:23.208Z,1021.94
2022-10-11T08:22:23.234Z,1021.90
2022-10-11T08:23:23.256Z,1021.90
2022-10-11T08:24:23.285Z,1021.93
2022-10-11T08:25:23.310Z,1021.91
2022-10-11T08:26:23.335Z,1021.90
2022-10-11T08:27:23.359Z,1021.93
2022-10-11T08:28:23.415Z,1021.97
2022-10-11T08:29:23.411Z,1021.96
2022-10-11T08:30:23.438Z,1021.93
2022-10-11T08:31:23.461Z,1021.92
2022-10-11T08:32:23.489Z,1021.95
2022-10-11T08:33:23.530Z,1021.93
2022-10-11T08:34:23.540Z,1021.97
2022-10-11T08:35:23.567Z,1021.94
2022-10-11T08:36:23.592Z,1021.94
2022-10-11T08:37:23.633Z,1021.92
2022-10-11T08:38:23.642Z,1021.96
2022-10-11T08:39:23.669Z,1021.90
2022-10-11T08:40:23.694Z,1021.88
2022-10-11T08:41:23.718Z,1021.88
2022-10-11T08:42:23.745Z,1021.91
2022-10-11T08:43:23.769Z,1021.95
2022-10-11T08:44:23.799Z,1021.97
2022-10-11T08:45:23.823Z,1021.95
2022-10-11T08:46:23.847Z,1021.93
2022-10-11T08:47:23.875Z,1021.94
2022-10-11T08:48:23.901Z,1021.92
2022-10-11T08:49:23.954Z,1021.93
2022-10-11T08:50:23.951Z,1021.93
2022-10-11T08:51:23.987Z,1021.90
2022-10-11T08:52:24.005Z,1021.91
2022-10-11T08:53:24.042Z,1021.90
2022-10-11T08:54:24.052Z,1021.93
2022-10-11T08:55:24.081Z,1021.90
2022-10-11T08:56:24.106Z,1021.96
2022-10-11T08:57:24.133Z,1021.83
2022-10-11T08:58:24.158Z,1021.91
2022-10-11T08:59:24.186Z,1021.84
2022-10-11T09:00:24.211Z,1021.88
2022-10-11T09:01:24.305Z,1021.92
2022-10-11T09:02:24.262Z,1021.90
2022-10-11T09:03:24.289Z,1021.90
2022-10-11T09:04:24.315Z,1021.86
2022-10-11T09:05:24.357Z,1021.93
2022-10-11T09:06:24.366Z,1021.91
2022-10-11T09:07:24.393Z,1021.93
2022-10-11T09:08:24.420Z,1021.91
2022-10-11T09:09:24.445Z,1021.90
2022-10-11T09:10:24.470Z,1021.91
2022-10-11T09:11:24.498Z,1021.91
2022-10-11T09:12:28.172Z,1021.93
2022-10-11T09:13:24.550Z,1021.90
2022-10-11T09:14:24.575Z,1021.88
2022-10-11T09:15:24.605Z,1021.84
2022-10-11T09:16:24.634Z,1021.84
2022-10-11T09:17:24.653Z,1021.93
2022-10-11T09:18:24.679Z,1021.92
2022-10-11T09:19:24.710Z,1021.92
2022-10-11T09:20:24.733Z,1021.86
2022-10-11T09:21:24.797Z,1021.86
2022-10-11T09:22:28.185Z,1021.89
2022-10-11T09:23:24.813Z,1021.87
2022-10-11T09:24:24.839Z,1021.87
2022-10-11T09:25:24.868Z,1021.88
2022-10-11T09:26:24.893Z,1021.86
2022-10-11T09:27:43.662Z,1021.88
2022-10-11T09:28:24.962Z,1021.91
2022-10-11T09:29:24.975Z,1021.98
2022-10-11T09:30:24.999Z,1021.96
2022-10-11T09:31:25.028Z,1021.95
2022-10-11T09:32:25.051Z,1021.98
2022-10-11T09:33:25.078Z,1021.97
2022-10-11T09:34:25.105Z,1021.93
2022-10-11T09:35:25.132Z,1021.97
2022-10-11T09:36:25.157Z,1021.93
2022-10-11T09:37:25.204Z,1022.00
2022-10-11T09:38:25.216Z,1021.97
2022-10-11T09:39:25.242Z,1021.99
2022-10-11T09:40:25.267Z,1021.99
2022-10-11T09:41:25.291Z,1021.95
2022-10-11T09:42:27.941Z,1021.99
2022-10-11T09:43:25.347Z,1021.91
2022-10-11T09:44:25.380Z,1021.91
2022-10-11T09:45:25.399Z,1021.97
2022-10-11T09:46:25.425Z,1021.95
2022-10-11T09:47:25.453Z,1021.94
2022-10-11T09:48:25.478Z,1021.92
2022-10-11T09:49:25.504Z,1021.90
2022-10-11T09:50:25.537Z,1021.90
2022-10-11T09:51:25.560Z,1021.90
2022-10-11T09:52:25.586Z,1021.97
2022-10-11T09:53:25.635Z,1021.97
2022-10-11T09:54:25.640Z,1022.00
2022-10-11T09:55:25.669Z,1021.97
2022-10-11T09:56:25.694Z,1021.99
2022-10-11T09:57:25.731Z,1022.00
2022-10-11T09:58:25.748Z,1021.95
2022-10-11T09:59:25.777Z,1022.02
2022-10-11T10:00:25.803Z,1022.01
2022-10-11T10:01:25.904Z,1022.03
2022-10-11T10:02:25.855Z,1022.11
2022-10-11T10:03:25.884Z,1022.10
2022-10-11T10:04:25.913Z,1022.09
2022-10-11T10:05:25.940Z,1022.10
2022-10-11T10:06:25.968Z,1022.09
2022-10-11T10:07:25.994Z,1022.12
2022-10-11T10:08:26.027Z,1022.05
2022-10-11T10:09:26.078Z,1022.06
2022-10-11T10:10:26.073Z,1022.08
2022-10-11T10:11:26.102Z,1022.04
2022-10-11T10:12:26.126Z,1021.99
2022-10-11T10:13:26.158Z,1022.01
2022-10-11T10:14:26.183Z,1022.01
2022-10-11T10:15:26.210Z,1021.99
2022-10-11T10:16:26.236Z,1022.05
2022-10-11T10:17:26.263Z,1022.06
2022-10-11T10:18:26.289Z,1022.05
2022-10-11T10:19:26.320Z,1022.04
2022-10-11T10:20:26.345Z,1022.05
2022-10-11T10:21:26.374Z,1022.01
2022-10-11T10:22:26.397Z,1022.01
2022-10-11T10:23:26.427Z,1022.05
2022-10-11T10:24:26.453Z,1022.17
2022-10-11T10:25:26.500Z,1022.14
2022-10-11T10:26:26.510Z,1022.13
2022-10-11T10:27:26.539Z,1022.13
2022-10-11T10:28:26.614Z,1022.17
2022-10-11T10:29:26.592Z,1022.13
2022-10-11T10:30:26.617Z,1022.09
2022-10-11T10:31:27.254Z,1022.06
2022-10-11T10:32:28.096Z,1022.15
2022-10-11T10:33:26.699Z,1022.14
2022-10-11T10:34:26.723Z,1022.04
2022-10-11T10:35:26.754Z,1021.98
2022-10-11T10:36:26.781Z,1022.05
2022-10-11T10:37:26.809Z,1022.03
2022-10-11T10:38:27.052Z,1022.11
2022-10-11T10:39:26.864Z,1022.11
2022-10-11T10:40:26.889Z,1022.02
2022-10-11T10:41:29.558Z,1022.10
2022-10-11T10:42:26.968Z,1022.15
2022-10-11T10:43:27.009Z,1022.11
2022-10-11T10:44:27.027Z,1022.09
2022-10-11T10:46:14.584Z,1022.03
2022-10-11T10:47:14.613Z,1022.00
2022-10-11T10:48:14.639Z,1022.03
2022-10-11T10:50:14.737Z,1022.04
2022-10-11T10:51:14.725Z,1021.98
2022-10-11T10:52:14.752Z,1022.01
2022-10-11T10:53:14.777Z,1021.96
2022-10-11T10:54:14.803Z,1021.97
2022-10-11T10:55:14.830Z,1021.97
2022-10-11T10:56:14.857Z,1021.91
2022-10-11T10:57:57.453Z,1021.89
2022-10-11T10:58:57.466Z,1021.92
2022-10-11T10:59:57.488Z,1021.93
2022-10-11T11:00:57.520Z,1021.90
2022-10-11T11:01:57.612Z,1021.89
2022-10-11T11:02:57.635Z,1021.85
2022-10-11T11:03:57.597Z,1021.90
2022-10-11T11:05:57.652Z,1021.80
2022-10-11T11:06:57.685Z,1021.88
2022-10-11T11:07:57.714Z,1021.82
2022-10-11T11:08:57.732Z,1021.88
2022-10-11T11:09:57.762Z,1021.92
2022-10-11T11:11:01.419Z,1021.92
2022-10-11T11:11:57.813Z,1021.86
2022-10-11T11:12:57.840Z,1021.91
2022-10-11T11:13:57.883Z,1021.88
2022-10-11T11:14:57.894Z,1021.88
2022-10-11T11:15:57.919Z,1021.85
2022-10-11T11:16:57.946Z,1021.82
2022-10-11T11:17:57.977Z,1021.81
2022-10-11T11:18:58.002Z,1021.81
2022-10-11T11:19:58.026Z,1021.78
2022-10-11T11:20:58.070Z,1021.81
2022-10-11T11:21:58.093Z,1021.77
2022-10-11T11:22:58.109Z,1021.79
2022-10-11T11:23:58.133Z,1021.77
2022-10-11T11:24:58.163Z,1021.75
2022-10-11T11:25:58.192Z,1021.78
2022-10-11T11:26:58.217Z,1021.75
2022-10-11T11:27:58.258Z,1021.78
2022-10-11T11:28:58.284Z,1021.75
2022-10-11T11:29:58.519Z,1021.75
2022-10-11T11:30:58.325Z,1021.70
2022-10-11T11:31:58.350Z,1021.68
2022-10-11T11:32:58.380Z,1021.70
2022-10-11T11:33:58.403Z,1021.71
2022-10-11T11:34:58.432Z,1021.68
2022-10-11T11:35:58.459Z,1021.69
2022-10-11T11:36:58.487Z,1021.73
2022-10-11T11:38:03.883Z,1021.69
2022-10-11T11:38:58.540Z,1021.66
2022-10-11T11:39:58.565Z,1021.67
2022-10-11T11:40:58.594Z,1021.65
2022-10-11T11:41:58.619Z,1021.67
2022-10-11T11:42:58.650Z,1021.59
2022-10-11T11:43:58.675Z,1021.56
2022-10-11T11:44:58.703Z,1021.58
2022-10-11T11:45:58.748Z,1021.53
2022-10-11T11:46:58.760Z,1021.53
2022-10-11T11:47:58.783Z,1021.54
2022-10-11T11:48:58.811Z,1021.55
2022-10-11T11:49:58.839Z,1021.55
2022-10-11T11:50:58.866Z,1021.52
2022-10-11T11:51:58.891Z,1021.57
2022-10-11T11:52:58.919Z,1021.45
2022-10-11T11:53:58.946Z,1021.46
2022-10-11T11:55:03.635Z,1021.46
2022-10-11T11:55:59.000Z,1021.45
2022-10-11T11:56:59.032Z,1021.41
2022-10-11T11:58:02.089Z,1021.43
2022-10-11T11:58:59.083Z,1021.37
2022-10-11T11:59:59.110Z,1021.31
2022-10-11T12:00:59.137Z,1021.32
2022-10-11T12:01:59.211Z,1021.30
2022-10-11T12:02:59.192Z,1021.31
2022-10-11T12:03:59.219Z,1021.33
2022-10-11T12:04:59.248Z,1021.33
2022-10-11T12:05:59.272Z,1021.35
2022-10-11T12:07:15.465Z,1021.29
2022-10-11T12:07:59.330Z,1021.29
2022-10-11T12:08:59.357Z,1021.25
2022-10-11T12:09:59.381Z,1021.25
2022-10-11T12:10:59.410Z,1021.20